sensor_id;sensor_type;location;lat;lon;timestamp;P1;durP1;ratioP1;P2;durP2;ratioP2
37677;SDS011;23517;50.390;8.616;2023-02-01T00:01:13;8.90;;;3.75;;
37677;SDS011;23517;50.390;8.616;2023-02-01T00:03:40;8.23;;;3.90;;
37677;SDS011;23517;50.390;8.616;2023-02-01T00:06:07;11.27;;;3.65;;
37677;SDS011;23517;50.390;8.616;2023-02-01T00:08:34;9.00;;;3.58;;
37677;SDS011;23517;50.390;8.616;2023-02-01T00:11:02;8.98;;;4.40;;
37677;SDS011;23517;50.390;8.616;2023-02-01T00:13:32;6.82;;;3.47;;
37677;SDS011;23517;50.390;8.616;2023-02-01T00:18:35;8.27;;;3.78;;
37677;SDS011;23517;50.390;8.616;2023-02-01T00:21:02;7.65;;;3.17;;
37677;SDS011;23517;50.390;8.616;2023-02-01T00:23:37;8.65;;;4.25;;
37677;SDS011;23517;50.390;8.616;2023-02-01T00:26:05;7.78;;;3.92;;
37677;SDS011;23517;50.390;8.616;2023-02-01T00:28:36;7.20;;;3.88;;
37677;SDS011;23517;50.390;8.616;2023-02-01T00:31:03;8.75;;;4.03;;
37677;SDS011;23517;50.390;8.616;2023-02-01T00:33:31;7.75;;;3.05;;
37677;SDS011;23517;50.390;8.616;2023-02-01T00:35:59;8.43;;;3.92;;
37677;SDS011;23517;50.390;8.616;2023-02-01T00:38:28;8.05;;;3.78;;
37677;SDS011;23517;50.390;8.616;2023-02-01T00:41:03;9.90;;;3.83;;
37677;SDS011;23517;50.390;8.616;2023-02-01T00:43:31;9.27;;;3.47;;
37677;SDS011;23517;50.390;8.616;2023-02-01T00:45:58;7.43;;;4.28;;
37677;SDS011;23517;50.390;8.616;2023-02-01T00:48:25;8.20;;;3.80;;
37677;SDS011;23517;50.390;8.616;2023-02-01T00:50:52;10.18;;;4.18;;
37677;SDS011;23517;50.390;8.616;2023-02-01T00:53:19;12.23;;;4.32;;
37677;SDS011;23517;50.390;8.616;2023-02-01T00:55:48;9.05;;;3.83;;
37677;SDS011;23517;50.390;8.616;2023-02-01T00:58:15;8.18;;;4.15;;
37677;SDS011;23517;50.390;8.616;2023-02-01T01:00:41;6.68;;;3.80;;
37677;SDS011;23517;50.390;8.616;2023-02-01T01:03:08;7.75;;;4.05;;
37677;SDS011;23517;50.390;8.616;2023-02-01T01:05:56;9.98;;;4.43;;
37677;SDS011;23517;50.390;8.616;2023-02-01T01:08:23;10.10;;;4.70;;
37677;SDS011;23517;50.390;8.616;2023-02-01T01:10:50;9.10;;;4.22;;
37677;SDS011;23517;50.390;8.616;2023-02-01T01:13:17;9.73;;;4.00;;
37677;SDS011;23517;50.390;8.616;2023-02-01T01:15:44;8.85;;;4.13;;
37677;SDS011;23517;50.390;8.616;2023-02-01T01:18:10;9.75;;;4.10;;
37677;SDS011;23517;50.390;8.616;2023-02-01T01:20:38;8.20;;;4.72;;
37677;SDS011;23517;50.390;8.616;2023-02-01T01:23:06;11.60;;;4.95;;
37677;SDS011;23517;50.390;8.616;2023-02-01T01:25:38;11.15;;;4.32;;
37677;SDS011;23517;50.390;8.616;2023-02-01T01:28:06;6.82;;;4.43;;
37677;SDS011;23517;50.390;8.616;2023-02-01T01:30:34;7.82;;;4.53;;
37677;SDS011;23517;50.390;8.616;2023-02-01T01:33:01;8.13;;;4.88;;
37677;SDS011;23517;50.390;8.616;2023-02-01T01:35:28;8.73;;;4.65;;
37677;SDS011;23517;50.390;8.616;2023-02-01T01:37:58;8.18;;;4.65;;
37677;SDS011;23517;50.390;8.616;2023-02-01T01:40:26;7.00;;;4.45;;
37677;SDS011;23517;50.390;8.616;2023-02-01T01:43:01;8.60;;;4.75;;
37677;SDS011;23517;50.390;8.616;2023-02-01T01:45:29;9.85;;;4.70;;
37677;SDS011;23517;50.390;8.616;2023-02-01T01:48:05;8.57;;;4.85;;
37677;SDS011;23517;50.390;8.616;2023-02-01T01:50:41;7.60;;;4.28;;
37677;SDS011;23517;50.390;8.616;2023-02-01T01:53:15;8.70;;;5.03;;
37677;SDS011;23517;50.390;8.616;2023-02-01T01:55:52;12.50;;;4.85;;
37677;SDS011;23517;50.390;8.616;2023-02-01T01:58:22;8.52;;;4.45;;
37677;SDS011;23517;50.390;8.616;2023-02-01T02:00:53;7.80;;;4.65;;
37677;SDS011;23517;50.390;8.616;2023-02-01T02:03:21;10.40;;;5.15;;
37677;SDS011;23517;50.390;8.616;2023-02-01T02:05:57;7.43;;;4.32;;
37677;SDS011;23517;50.390;8.616;2023-02-01T02:08:27;8.57;;;4.07;;
37677;SDS011;23517;50.390;8.616;2023-02-01T02:10:55;10.45;;;4.85;;
37677;SDS011;23517;50.390;8.616;2023-02-01T02:13:32;9.70;;;3.88;;
37677;SDS011;23517;50.390;8.616;2023-02-01T02:22:02;10.55;;;4.63;;
37677;SDS011;23517;50.390;8.616;2023-02-01T02:33:37;6.95;;;4.75;;
37677;SDS011;23517;50.390;8.616;2023-02-01T02:36:37;8.85;;;4.13;;
37677;SDS011;23517;50.390;8.616;2023-02-01T02:39:20;8.75;;;5.25;;
37677;SDS011;23517;50.390;8.616;2023-02-01T02:42:11;8.57;;;4.38;;
37677;SDS011;23517;50.390;8.616;2023-02-01T02:50:35;14.57;;;5.05;;
37677;SDS011;23517;50.390;8.616;2023-02-01T02:53:30;8.63;;;4.32;;
37677;SDS011;23517;50.390;8.616;2023-02-01T02:56:21;11.05;;;4.38;;
37677;SDS011;23517;50.390;8.616;2023-02-01T02:59:09;5.25;;;3.30;;
37677;SDS011;23517;50.390;8.616;2023-02-01T03:01:57;6.07;;;3.40;;
37677;SDS011;23517;50.390;8.616;2023-02-01T03:04:42;14.07;;;4.20;;
37677;SDS011;23517;50.390;8.616;2023-02-01T03:07:13;11.90;;;4.00;;
37677;SDS011;23517;50.390;8.616;2023-02-01T03:10:24;10.80;;;4.15;;
37677;SDS011;23517;50.390;8.616;2023-02-01T03:13:16;9.13;;;3.58;;
37677;SDS011;23517;50.390;8.616;2023-02-01T03:16:19;12.73;;;3.67;;
37677;SDS011;23517;50.390;8.616;2023-02-01T03:19:21;7.78;;;3.30;;
37677;SDS011;23517;50.390;8.616;2023-02-01T03:21:57;9.32;;;3.20;;
37677;SDS011;23517;50.390;8.616;2023-02-01T03:24:32;14.30;;;3.67;;
37677;SDS011;23517;50.390;8.616;2023-02-01T03:27:07;12.50;;;3.35;;
37677;SDS011;23517;50.390;8.616;2023-02-01T03:30:03;11.18;;;3.35;;
37677;SDS011;23517;50.390;8.616;2023-02-01T03:32:46;7.30;;;2.63;;
37677;SDS011;23517;50.390;8.616;2023-02-01T03:35:30;13.52;;;3.20;;
37677;SDS011;23517;50.390;8.616;2023-02-01T03:44:04;12.82;;;2.97;;
37677;SDS011;23517;50.390;8.616;2023-02-01T03:46:44;12.43;;;3.05;;
37677;SDS011;23517;50.390;8.616;2023-02-01T03:49:44;13.02;;;3.20;;
37677;SDS011;23517;50.390;8.616;2023-02-01T03:52:13;12.55;;;2.83;;
37677;SDS011;23517;50.390;8.616;2023-02-01T03:54:44;9.70;;;2.50;;
37677;SDS011;23517;50.390;8.616;2023-02-01T03:57:13;11.07;;;2.80;;
37677;SDS011;23517;50.390;8.616;2023-02-01T03:59:46;16.75;;;3.17;;
37677;SDS011;23517;50.390;8.616;2023-02-01T04:02:13;14.23;;;3.33;;
37677;SDS011;23517;50.390;8.616;2023-02-01T04:04:39;11.10;;;2.38;;
37677;SDS011;23517;50.390;8.616;2023-02-01T04:07:06;11.63;;;2.95;;
37677;SDS011;23517;50.390;8.616;2023-02-01T04:09:35;18.13;;;3.17;;
37677;SDS011;23517;50.390;8.616;2023-02-01T04:12:02;10.63;;;3.10;;
37677;SDS011;23517;50.390;8.616;2023-02-01T04:14:29;7.53;;;2.58;;
37677;SDS011;23517;50.390;8.616;2023-02-01T04:16:55;14.57;;;3.00;;
37677;SDS011;23517;50.390;8.616;2023-02-01T04:19:22;6.97;;;2.40;;
37677;SDS011;23517;50.390;8.616;2023-02-01T04:21:49;12.63;;;3.08;;
37677;SDS011;23517;50.390;8.616;2023-02-01T04:24:15;15.65;;;3.20;;
37677;SDS011;23517;50.390;8.616;2023-02-01T04:26:42;14.18;;;2.80;;
37677;SDS011;23517;50.390;8.616;2023-02-01T04:29:09;19.33;;;2.92;;
37677;SDS011;23517;50.390;8.616;2023-02-01T04:31:36;14.60;;;3.10;;
37677;SDS011;23517;50.390;8.616;2023-02-01T04:34:03;11.80;;;3.03;;
37677;SDS011;23517;50.390;8.616;2023-02-01T04:36:29;10.00;;;2.35;;
37677;SDS011;23517;50.390;8.616;2023-02-01T04:38:56;15.13;;;2.85;;
37677;SDS011;23517;50.390;8.616;2023-02-01T04:41:23;13.18;;;3.08;;
37677;SDS011;23517;50.390;8.616;2023-02-01T04:43:50;9.50;;;3.22;;
37677;SDS011;23517;50.390;8.616;2023-02-01T04:46:18;10.10;;;3.03;;
37677;SDS011;23517;50.390;8.616;2023-02-01T04:48:45;13.35;;;2.67;;
37677;SDS011;23517;50.390;8.616;2023-02-01T04:51:12;9.82;;;2.70;;
37677;SDS011;23517;50.390;8.616;2023-02-01T04:53:38;11.60;;;3.10;;
37677;SDS011;23517;50.390;8.616;2023-02-01T04:56:05;15.27;;;3.20;;
37677;SDS011;23517;50.390;8.616;2023-02-01T04:58:33;13.82;;;2.97;;
37677;SDS011;23517;50.390;8.616;2023-02-01T05:01:04;9.93;;;2.92;;
37677;SDS011;23517;50.390;8.616;2023-02-01T05:03:32;14.63;;;3.13;;
37677;SDS011;23517;50.390;8.616;2023-02-01T05:05:59;18.17;;;3.83;;
37677;SDS011;23517;50.390;8.616;2023-02-01T05:08:26;13.25;;;2.50;;
37677;SDS011;23517;50.390;8.616;2023-02-01T05:10:54;12.35;;;2.80;;
37677;SDS011;23517;50.390;8.616;2023-02-01T05:13:21;14.93;;;3.03;;
37677;SDS011;23517;50.390;8.616;2023-02-01T05:16:06;12.07;;;2.85;;
37677;SDS011;23517;50.390;8.616;2023-02-01T05:18:33;16.83;;;3.35;;
37677;SDS011;23517;50.390;8.616;2023-02-01T05:21:00;14.60;;;2.67;;
37677;SDS011;23517;50.390;8.616;2023-02-01T05:23:27;10.73;;;2.80;;
37677;SDS011;23517;50.390;8.616;2023-02-01T05:25:58;17.30;;;3.05;;
37677;SDS011;23517;50.390;8.616;2023-02-01T05:28:28;14.75;;;2.92;;
37677;SDS011;23517;50.390;8.616;2023-02-01T05:30:55;12.18;;;2.70;;
37677;SDS011;23517;50.390;8.616;2023-02-01T05:33:22;20.25;;;4.00;;
37677;SDS011;23517;50.390;8.616;2023-02-01T05:35:48;13.75;;;3.20;;
37677;SDS011;23517;50.390;8.616;2023-02-01T05:38:16;12.50;;;2.90;;
37677;SDS011;23517;50.390;8.616;2023-02-01T05:40:43;11.10;;;3.03;;
37677;SDS011;23517;50.390;8.616;2023-02-01T05:43:15;18.98;;;3.25;;
37677;SDS011;23517;50.390;8.616;2023-02-01T05:45:42;15.90;;;2.85;;
37677;SDS011;23517;50.390;8.616;2023-02-01T05:48:08;15.45;;;2.88;;
37677;SDS011;23517;50.390;8.616;2023-02-01T05:50:35;14.80;;;2.90;;
37677;SDS011;23517;50.390;8.616;2023-02-01T05:53:01;15.52;;;3.08;;
37677;SDS011;23517;50.390;8.616;2023-02-01T05:55:28;18.60;;;2.95;;
37677;SDS011;23517;50.390;8.616;2023-02-01T05:57:55;19.20;;;3.72;;
37677;SDS011;23517;50.390;8.616;2023-02-01T06:00:21;15.50;;;3.40;;
37677;SDS011;23517;50.390;8.616;2023-02-01T06:02:49;13.70;;;2.88;;
37677;SDS011;23517;50.390;8.616;2023-02-01T06:05:16;17.40;;;3.15;;
37677;SDS011;23517;50.390;8.616;2023-02-01T06:07:42;14.00;;;3.08;;
37677;SDS011;23517;50.390;8.616;2023-02-01T06:10:09;10.45;;;2.70;;
37677;SDS011;23517;50.390;8.616;2023-02-01T06:12:36;14.35;;;3.55;;
37677;SDS011;23517;50.390;8.616;2023-02-01T06:15:03;17.50;;;3.55;;
37677;SDS011;23517;50.390;8.616;2023-02-01T06:17:30;13.63;;;3.42;;
37677;SDS011;23517;50.390;8.616;2023-02-01T06:20:04;15.07;;;3.08;;
37677;SDS011;23517;50.390;8.616;2023-02-01T06:22:32;17.33;;;3.17;;
37677;SDS011;23517;50.390;8.616;2023-02-01T06:25:03;16.27;;;3.25;;
37677;SDS011;23517;50.390;8.616;2023-02-01T06:27:31;14.63;;;3.20;;
37677;SDS011;23517;50.390;8.616;2023-02-01T06:29:58;12.63;;;2.67;;
37677;SDS011;23517;50.390;8.616;2023-02-01T06:32:27;12.95;;;2.65;;
37677;SDS011;23517;50.390;8.616;2023-02-01T06:34:53;9.68;;;2.80;;
37677;SDS011;23517;50.390;8.616;2023-02-01T06:37:22;13.25;;;3.05;;
37677;SDS011;23517;50.390;8.616;2023-02-01T06:39:51;12.38;;;2.80;;
37677;SDS011;23517;50.390;8.616;2023-02-01T06:42:17;14.40;;;3.47;;
37677;SDS011;23517;50.390;8.616;2023-02-01T06:44:44;12.32;;;3.80;;
37677;SDS011;23517;50.390;8.616;2023-02-01T06:47:11;13.43;;;2.78;;
37677;SDS011;23517;50.390;8.616;2023-02-01T06:49:37;16.30;;;2.85;;
37677;SDS011;23517;50.390;8.616;2023-02-01T06:52:04;12.95;;;2.95;;
37677;SDS011;23517;50.390;8.616;2023-02-01T06:54:30;14.77;;;2.72;;
37677;SDS011;23517;50.390;8.616;2023-02-01T06:56:59;16.45;;;3.30;;
37677;SDS011;23517;50.390;8.616;2023-02-01T06:59:26;18.08;;;3.60;;
37677;SDS011;23517;50.390;8.616;2023-02-01T07:01:52;13.18;;;3.35;;
37677;SDS011;23517;50.390;8.616;2023-02-01T07:04:21;15.38;;;2.80;;
37677;SDS011;23517;50.390;8.616;2023-02-01T07:06:48;11.93;;;2.70;;
37677;SDS011;23517;50.390;8.616;2023-02-01T07:09:16;14.73;;;3.75;;
37677;SDS011;23517;50.390;8.616;2023-02-01T07:11:43;16.17;;;3.35;;
37677;SDS011;23517;50.390;8.616;2023-02-01T07:14:10;15.52;;;3.53;;
37677;SDS011;23517;50.390;8.616;2023-02-01T07:16:37;16.23;;;3.58;;
37677;SDS011;23517;50.390;8.616;2023-02-01T07:19:03;12.65;;;3.55;;
37677;SDS011;23517;50.390;8.616;2023-02-01T07:21:30;18.52;;;3.17;;
37677;SDS011;23517;50.390;8.616;2023-02-01T07:23:58;16.65;;;3.58;;
37677;SDS011;23517;50.390;8.616;2023-02-01T07:26:24;16.02;;;3.50;;
37677;SDS011;23517;50.390;8.616;2023-02-01T07:28:51;15.02;;;3.08;;
37677;SDS011;23517;50.390;8.616;2023-02-01T07:31:18;16.95;;;3.00;;
37677;SDS011;23517;50.390;8.616;2023-02-01T07:33:48;17.23;;;3.15;;
37677;SDS011;23517;50.390;8.616;2023-02-01T07:36:18;16.98;;;3.45;;
37677;SDS011;23517;50.390;8.616;2023-02-01T07:38:45;13.48;;;3.00;;
37677;SDS011;23517;50.390;8.616;2023-02-01T07:41:19;11.85;;;3.22;;
37677;SDS011;23517;50.390;8.616;2023-02-01T07:43:45;12.00;;;2.72;;
37677;SDS011;23517;50.390;8.616;2023-02-01T07:46:13;8.70;;;2.47;;
37677;SDS011;23517;50.390;8.616;2023-02-01T07:48:41;12.85;;;2.90;;
37677;SDS011;23517;50.390;8.616;2023-02-01T07:51:09;12.07;;;2.58;;
37677;SDS011;23517;50.390;8.616;2023-02-01T07:53:39;20.58;;;3.58;;
37677;SDS011;23517;50.390;8.616;2023-02-01T07:56:11;14.77;;;3.30;;
37677;SDS011;23517;50.390;8.616;2023-02-01T07:58:41;14.02;;;3.15;;
37677;SDS011;23517;50.390;8.616;2023-02-01T08:01:13;12.45;;;2.45;;
37677;SDS011;23517;50.390;8.616;2023-02-01T08:04:00;13.40;;;2.88;;
37677;SDS011;23517;50.390;8.616;2023-02-01T08:06:29;9.90;;;2.38;;
37677;SDS011;23517;50.390;8.616;2023-02-01T08:08:58;12.18;;;2.70;;
37677;SDS011;23517;50.390;8.616;2023-02-01T08:11:25;14.82;;;3.58;;
37677;SDS011;23517;50.390;8.616;2023-02-01T08:13:52;11.25;;;2.95;;
37677;SDS011;23517;50.390;8.616;2023-02-01T08:16:20;11.82;;;2.40;;
37677;SDS011;23517;50.390;8.616;2023-02-01T08:18:47;11.77;;;2.75;;
37677;SDS011;23517;50.390;8.616;2023-02-01T08:21:19;12.75;;;2.85;;
37677;SDS011;23517;50.390;8.616;2023-02-01T08:23:49;12.63;;;3.05;;
37677;SDS011;23517;50.390;8.616;2023-02-01T08:26:17;14.50;;;2.75;;
37677;SDS011;23517;50.390;8.616;2023-02-01T08:28:48;15.63;;;2.80;;
37677;SDS011;23517;50.390;8.616;2023-02-01T08:31:19;12.90;;;3.28;;
37677;SDS011;23517;50.390;8.616;2023-02-01T08:33:53;10.60;;;2.72;;
37677;SDS011;23517;50.390;8.616;2023-02-01T08:36:26;14.93;;;2.58;;
37677;SDS011;23517;50.390;8.616;2023-02-01T08:38:55;10.38;;;2.58;;
37677;SDS011;23517;50.390;8.616;2023-02-01T08:41:23;13.73;;;2.75;;
37677;SDS011;23517;50.390;8.616;2023-02-01T08:43:52;15.07;;;2.85;;
37677;SDS011;23517;50.390;8.616;2023-02-01T08:46:20;13.18;;;2.70;;
37677;SDS011;23517;50.390;8.616;2023-02-01T08:48:48;14.32;;;2.80;;
37677;SDS011;23517;50.390;8.616;2023-02-01T08:51:16;14.70;;;3.47;;
37677;SDS011;23517;50.390;8.616;2023-02-01T08:53:45;13.88;;;3.33;;
37677;SDS011;23517;50.390;8.616;2023-02-01T08:56:15;10.48;;;2.72;;
37677;SDS011;23517;50.390;8.616;2023-02-01T08:58:45;14.07;;;3.15;;
37677;SDS011;23517;50.390;8.616;2023-02-01T09:01:13;14.48;;;2.92;;
37677;SDS011;23517;50.390;8.616;2023-02-01T09:03:42;13.18;;;3.35;;
37677;SDS011;23517;50.390;8.616;2023-02-01T09:06:10;10.30;;;2.30;;
37677;SDS011;23517;50.390;8.616;2023-02-01T09:08:39;18.05;;;4.03;;
37677;SDS011;23517;50.390;8.616;2023-02-01T09:11:08;22.67;;;3.58;;
37677;SDS011;23517;50.390;8.616;2023-02-01T09:13:39;14.57;;;2.97;;
37677;SDS011;23517;50.390;8.616;2023-02-01T09:16:06;12.70;;;2.90;;
37677;SDS011;23517;50.390;8.616;2023-02-01T09:18:33;15.70;;;3.22;;
37677;SDS011;23517;50.390;8.616;2023-02-01T09:21:03;15.85;;;3.05;;
37677;SDS011;23517;50.390;8.616;2023-02-01T09:23:33;13.43;;;2.80;;
37677;SDS011;23517;50.390;8.616;2023-02-01T09:26:01;12.75;;;2.58;;
37677;SDS011;23517;50.390;8.616;2023-02-01T09:28:30;13.43;;;2.78;;
37677;SDS011;23517;50.390;8.616;2023-02-01T09:30:57;11.60;;;3.05;;
37677;SDS011;23517;50.390;8.616;2023-02-01T09:33:26;16.67;;;3.90;;
37677;SDS011;23517;50.390;8.616;2023-02-01T09:35:58;15.52;;;3.13;;
37677;SDS011;23517;50.390;8.616;2023-02-01T09:38:30;17.55;;;3.50;;
37677;SDS011;23517;50.390;8.616;2023-02-01T09:40:59;12.07;;;3.05;;
37677;SDS011;23517;50.390;8.616;2023-02-01T09:43:29;15.00;;;2.83;;
37677;SDS011;23517;50.390;8.616;2023-02-01T09:46:30;13.90;;;3.28;;
37677;SDS011;23517;50.390;8.616;2023-02-01T09:49:00;18.45;;;3.20;;
37677;SDS011;23517;50.390;8.616;2023-02-01T09:51:33;16.85;;;3.30;;
37677;SDS011;23517;50.390;8.616;2023-02-01T09:54:11;20.58;;;3.30;;
37677;SDS011;23517;50.390;8.616;2023-02-01T09:56:49;17.95;;;3.53;;
37677;SDS011;23517;50.390;8.616;2023-02-01T09:59:39;11.30;;;2.70;;
37677;SDS011;23517;50.390;8.616;2023-02-01T10:02:20;9.68;;;2.88;;
37677;SDS011;23517;50.390;8.616;2023-02-01T10:04:54;15.40;;;2.80;;
37677;SDS011;23517;50.390;8.616;2023-02-01T10:15:57;11.35;;;2.90;;
37677;SDS011;23517;50.390;8.616;2023-02-01T10:19:15;12.48;;;3.33;;
37677;SDS011;23517;50.390;8.616;2023-02-01T10:22:04;23.05;;;4.38;;
37677;SDS011;23517;50.390;8.616;2023-02-01T10:24:37;17.88;;;3.35;;
37677;SDS011;23517;50.390;8.616;2023-02-01T10:27:13;19.55;;;5.18;;
37677;SDS011;23517;50.390;8.616;2023-02-01T10:29:58;16.02;;;4.60;;
37677;SDS011;23517;50.390;8.616;2023-02-01T10:32:33;17.75;;;5.55;;
37677;SDS011;23517;50.390;8.616;2023-02-01T10:35:04;18.90;;;4.50;;
37677;SDS011;23517;50.390;8.616;2023-02-01T10:37:41;14.43;;;3.20;;
37677;SDS011;23517;50.390;8.616;2023-02-01T10:40:26;14.77;;;4.32;;
37677;SDS011;23517;50.390;8.616;2023-02-01T10:42:57;8.27;;;2.60;;
37677;SDS011;23517;50.390;8.616;2023-02-01T10:45:31;14.43;;;2.90;;
37677;SDS011;23517;50.390;8.616;2023-02-01T10:47:59;8.98;;;2.80;;
37677;SDS011;23517;50.390;8.616;2023-02-01T10:50:44;15.80;;;3.03;;
37677;SDS011;23517;50.390;8.616;2023-02-01T10:53:29;8.02;;;2.63;;
37677;SDS011;23517;50.390;8.616;2023-02-01T10:56:06;14.23;;;3.10;;
37677;SDS011;23517;50.390;8.616;2023-02-01T10:58:35;14.13;;;2.80;;
37677;SDS011;23517;50.390;8.616;2023-02-01T11:01:09;10.40;;;3.05;;
37677;SDS011;23517;50.390;8.616;2023-02-01T11:09:24;12.52;;;2.30;;
37677;SDS011;23517;50.390;8.616;2023-02-01T11:11:59;16.08;;;2.70;;
37677;SDS011;23517;50.390;8.616;2023-02-01T11:17:02;8.88;;;2.25;;
37677;SDS011;23517;50.390;8.616;2023-02-01T11:20:00;15.00;;;2.70;;
37677;SDS011;23517;50.390;8.616;2023-02-01T11:22:38;11.15;;;2.38;;
37677;SDS011;23517;50.390;8.616;2023-02-01T11:25:14;12.00;;;2.47;;
37677;SDS011;23517;50.390;8.616;2023-02-01T11:27:43;12.07;;;2.70;;
37677;SDS011;23517;50.390;8.616;2023-02-01T11:30:27;14.88;;;2.60;;
37677;SDS011;23517;50.390;8.616;2023-02-01T11:33:06;12.07;;;2.22;;
37677;SDS011;23517;50.390;8.616;2023-02-01T11:35:39;11.35;;;2.40;;
37677;SDS011;23517;50.390;8.616;2023-02-01T11:38:11;9.65;;;2.65;;
37677;SDS011;23517;50.390;8.616;2023-02-01T11:41:12;20.08;;;3.28;;
37677;SDS011;23517;50.390;8.616;2023-02-01T11:46:49;13.95;;;2.55;;
37677;SDS011;23517;50.390;8.616;2023-02-01T11:49:20;11.90;;;2.42;;
37677;SDS011;23517;50.390;8.616;2023-02-01T11:54:55;10.02;;;2.72;;
37677;SDS011;23517;50.390;8.616;2023-02-01T12:00:41;10.80;;;2.35;;
37677;SDS011;23517;50.390;8.616;2023-02-01T12:03:49;10.52;;;2.30;;
37677;SDS011;23517;50.390;8.616;2023-02-01T12:06:56;11.27;;;2.42;;
37677;SDS011;23517;50.390;8.616;2023-02-01T12:09:41;6.97;;;1.85;;
37677;SDS011;23517;50.390;8.616;2023-02-01T12:17:55;11.63;;;2.50;;
37677;SDS011;23517;50.390;8.616;2023-02-01T12:20:58;14.00;;;3.13;;
37677;SDS011;23517;50.390;8.616;2023-02-01T12:34:59;16.92;;;2.60;;
37677;SDS011;23517;50.390;8.616;2023-02-01T12:41:02;9.05;;;2.03;;
37677;SDS011;23517;50.390;8.616;2023-02-01T12:43:53;12.63;;;2.40;;
37677;SDS011;23517;50.390;8.616;2023-02-01T12:46:46;8.70;;;2.00;;
37677;SDS011;23517;50.390;8.616;2023-02-01T12:49:21;9.30;;;2.15;;
37677;SDS011;23517;50.390;8.616;2023-02-01T12:51:58;9.65;;;2.20;;
37677;SDS011;23517;50.390;8.616;2023-02-01T12:54:39;9.50;;;2.08;;
37677;SDS011;23517;50.390;8.616;2023-02-01T12:57:23;5.93;;;2.08;;
37677;SDS011;23517;50.390;8.616;2023-02-01T13:00:13;14.50;;;3.13;;
37677;SDS011;23517;50.390;8.616;2023-02-01T13:03:10;10.07;;;2.47;;
37677;SDS011;23517;50.390;8.616;2023-02-01T13:06:04;10.75;;;2.15;;
37677;SDS011;23517;50.390;8.616;2023-02-01T13:08:47;13.90;;;2.20;;
37677;SDS011;23517;50.390;8.616;2023-02-01T13:11:28;13.55;;;2.53;;
37677;SDS011;23517;50.390;8.616;2023-02-01T13:17:03;9.27;;;1.95;;
37677;SDS011;23517;50.390;8.616;2023-02-01T13:19:59;10.18;;;2.03;;
37677;SDS011;23517;50.390;8.616;2023-02-01T13:22:40;12.38;;;2.67;;
37677;SDS011;23517;50.390;8.616;2023-02-01T13:27:36;15.48;;;4.05;;
37677;SDS011;23517;50.390;8.616;2023-02-01T13:30:20;11.43;;;2.13;;
37677;SDS011;23517;50.390;8.616;2023-02-01T13:33:41;10.75;;;2.38;;
37677;SDS011;23517;50.390;8.616;2023-02-01T13:42:21;17.10;;;4.57;;
37677;SDS011;23517;50.390;8.616;2023-02-01T13:44:59;13.70;;;3.17;;
37677;SDS011;23517;50.390;8.616;2023-02-01T13:47:40;11.52;;;2.75;;
37677;SDS011;23517;50.390;8.616;2023-02-01T13:53:01;16.55;;;2.72;;
37677;SDS011;23517;50.390;8.616;2023-02-01T13:55:58;11.48;;;2.22;;
37677;SDS011;23517;50.390;8.616;2023-02-01T13:58:32;11.80;;;2.17;;
37677;SDS011;23517;50.390;8.616;2023-02-01T14:03:49;10.73;;;2.17;;
37677;SDS011;23517;50.390;8.616;2023-02-01T14:11:44;12.20;;;2.20;;
37677;SDS011;23517;50.390;8.616;2023-02-01T14:19:37;9.25;;;2.30;;
37677;SDS011;23517;50.390;8.616;2023-02-01T14:24:51;8.73;;;2.33;;
37677;SDS011;23517;50.390;8.616;2023-02-01T14:27:23;12.32;;;2.40;;
37677;SDS011;23517;50.390;8.616;2023-02-01T14:30:05;11.65;;;2.30;;
37677;SDS011;23517;50.390;8.616;2023-02-01T14:32:37;10.85;;;2.35;;
37677;SDS011;23517;50.390;8.616;2023-02-01T14:35:26;11.05;;;2.10;;
37677;SDS011;23517;50.390;8.616;2023-02-01T14:37:54;5.82;;;1.63;;
37677;SDS011;23517;50.390;8.616;2023-02-01T14:40:28;7.63;;;1.80;;
37677;SDS011;23517;50.390;8.616;2023-02-01T14:42:57;11.48;;;2.20;;
37677;SDS011;23517;50.390;8.616;2023-02-01T14:53:11;9.45;;;2.15;;
37677;SDS011;23517;50.390;8.616;2023-02-01T14:55:51;12.15;;;2.58;;
37677;SDS011;23517;50.390;8.616;2023-02-01T14:58:39;9.13;;;2.00;;
37677;SDS011;23517;50.390;8.616;2023-02-01T15:04:04;12.15;;;2.10;;
37677;SDS011;23517;50.390;8.616;2023-02-01T15:06:45;9.25;;;2.10;;
37677;SDS011;23517;50.390;8.616;2023-02-01T15:12:14;9.50;;;2.22;;
37677;SDS011;23517;50.390;8.616;2023-02-01T15:14:47;11.25;;;2.22;;
37677;SDS011;23517;50.390;8.616;2023-02-01T15:17:59;10.75;;;2.53;;
37677;SDS011;23517;50.390;8.616;2023-02-01T15:20:30;11.27;;;2.25;;
37677;SDS011;23517;50.390;8.616;2023-02-01T15:25:33;9.43;;;2.15;;
37677;SDS011;23517;50.390;8.616;2023-02-01T15:28:05;11.63;;;2.05;;
37677;SDS011;23517;50.390;8.616;2023-02-01T15:30:39;9.40;;;2.47;;
37677;SDS011;23517;50.390;8.616;2023-02-01T15:33:07;10.00;;;2.40;;
37677;SDS011;23517;50.390;8.616;2023-02-01T15:35:45;12.77;;;2.20;;
37677;SDS011;23517;50.390;8.616;2023-02-01T15:43:29;11.32;;;2.50;;
37677;SDS011;23517;50.390;8.616;2023-02-01T15:46:03;13.55;;;2.20;;
37677;SDS011;23517;50.390;8.616;2023-02-01T15:48:42;13.32;;;3.20;;
37677;SDS011;23517;50.390;8.616;2023-02-01T15:51:13;12.55;;;3.03;;
37677;SDS011;23517;50.390;8.616;2023-02-01T15:53:44;12.57;;;2.28;;
37677;SDS011;23517;50.390;8.616;2023-02-01T15:56:23;8.25;;;2.65;;
37677;SDS011;23517;50.390;8.616;2023-02-01T15:58:57;11.15;;;2.15;;
37677;SDS011;23517;50.390;8.616;2023-02-01T16:01:27;8.75;;;2.13;;
37677;SDS011;23517;50.390;8.616;2023-02-01T16:04:02;11.85;;;2.60;;
37677;SDS011;23517;50.390;8.616;2023-02-01T16:06:45;10.13;;;2.38;;
37677;SDS011;23517;50.390;8.616;2023-02-01T16:09:15;7.03;;;2.42;;
37677;SDS011;23517;50.390;8.616;2023-02-01T16:11:49;11.63;;;3.75;;
37677;SDS011;23517;50.390;8.616;2023-02-01T16:14:24;15.48;;;3.58;;
37677;SDS011;23517;50.390;8.616;2023-02-01T16:16:52;8.38;;;2.40;;
37677;SDS011;23517;50.390;8.616;2023-02-01T16:19:21;11.75;;;2.28;;
37677;SDS011;23517;50.390;8.616;2023-02-01T16:21:54;4.30;;;1.52;;
37677;SDS011;23517;50.390;8.616;2023-02-01T16:24:24;12.75;;;2.00;;
37677;SDS011;23517;50.390;8.616;2023-02-01T16:26:52;11.23;;;2.25;;
37677;SDS011;23517;50.390;8.616;2023-02-01T16:29:18;13.65;;;2.53;;
37677;SDS011;23517;50.390;8.616;2023-02-01T16:31:47;6.32;;;2.03;;
37677;SDS011;23517;50.390;8.616;2023-02-01T16:34:15;9.98;;;2.22;;
37677;SDS011;23517;50.390;8.616;2023-02-01T16:36:43;9.18;;;2.00;;
37677;SDS011;23517;50.390;8.616;2023-02-01T16:39:18;11.23;;;2.33;;
37677;SDS011;23517;50.390;8.616;2023-02-01T16:41:45;8.82;;;2.20;;
37677;SDS011;23517;50.390;8.616;2023-02-01T16:44:12;8.18;;;2.63;;
37677;SDS011;23517;50.390;8.616;2023-02-01T16:46:40;10.23;;;2.13;;
37677;SDS011;23517;50.390;8.616;2023-02-01T16:49:21;8.90;;;2.00;;
37677;SDS011;23517;50.390;8.616;2023-02-01T16:51:50;14.82;;;2.65;;
37677;SDS011;23517;50.390;8.616;2023-02-01T16:54:20;12.15;;;2.22;;
37677;SDS011;23517;50.390;8.616;2023-02-01T16:56:47;9.05;;;2.10;;
37677;SDS011;23517;50.390;8.616;2023-02-01T16:59:15;9.10;;;2.40;;
37677;SDS011;23517;50.390;8.616;2023-02-01T17:01:42;13.48;;;2.30;;
37677;SDS011;23517;50.390;8.616;2023-02-01T17:04:09;14.43;;;2.30;;
37677;SDS011;23517;50.390;8.616;2023-02-01T17:06:37;11.38;;;1.95;;
37677;SDS011;23517;50.390;8.616;2023-02-01T17:09:05;8.85;;;1.65;;
37677;SDS011;23517;50.390;8.616;2023-02-01T17:11:32;11.63;;;2.08;;
37677;SDS011;23517;50.390;8.616;2023-02-01T17:14:13;14.23;;;2.20;;
37677;SDS011;23517;50.390;8.616;2023-02-01T17:16:45;7.78;;;2.13;;
37677;SDS011;23517;50.390;8.616;2023-02-01T17:19:15;14.75;;;4.43;;
37677;SDS011;23517;50.390;8.616;2023-02-01T17:21:46;10.35;;;2.35;;